sensor_id;sensor_type;location;lat;lon;timestamp;temperature;humidity
71173;DHT22;58875;51.996;4.504;2023-12-20T00:00:25;8.34;78.95
71173;DHT22;58875;51.996;4.504;2023-12-20T00:02:50;8.40;79.01
71173;DHT22;58875;51.996;4.504;2023-12-20T00:05:16;8.36;79.36
71173;DHT22;58875;51.996;4.504;2023-12-20T00:07:41;8.37;79.35
71173;DHT22;58875;51.996;4.504;2023-12-20T00:10:07;8.34;79.45
71173;DHT22;58875;51.996;4.504;2023-12-20T00:12:33;8.37;79.47
71173;DHT22;58875;51.996;4.504;2023-12-20T00:14:58;8.38;79.51
71173;DHT22;58875;51.996;4.504;2023-12-20T00:17:24;8.41;79.53
71173;DHT22;58875;51.996;4.504;2023-12-20T00:19:49;8.40;79.60
71173;DHT22;58875;51.996;4.504;2023-12-20T00:22:15;8.41;79.47
71173;DHT22;58875;51.996;4.504;2023-12-20T00:24:40;8.38;79.35
71173;DHT22;58875;51.996;4.504;2023-12-20T00:27:06;8.43;79.56
71173;DHT22;58875;51.996;4.504;2023-12-20T00:29:31;8.48;79.40
71173;DHT22;58875;51.996;4.504;2023-12-20T00:31:57;8.55;79.37
71173;DHT22;58875;51.996;4.504;2023-12-20T00:34:22;8.47;78.89
71173;DHT22;58875;51.996;4.504;2023-12-20T00:36:48;8.47;79.12
71173;DHT22;58875;51.996;4.504;2023-12-20T00:39:13;8.51;78.83
71173;DHT22;58875;51.996;4.504;2023-12-20T00:41:39;8.50;78.70
71173;DHT22;58875;51.996;4.504;2023-12-20T00:44:05;8.53;78.47
71173;DHT22;58875;51.996;4.504;2023-12-20T00:46:31;8.47;78.34
71173;DHT22;58875;51.996;4.504;2023-12-20T00:48:56;8.51;78.29
71173;DHT22;58875;51.996;4.504;2023-12-20T00:51:22;8.48;78.42
71173;DHT22;58875;51.996;4.504;2023-12-20T00:53:50;8.48;78.22
71173;DHT22;58875;51.996;4.504;2023-12-20T00:56:15;8.45;78.37
71173;DHT22;58875;51.996;4.504;2023-12-20T00:58:41;8.43;78.14
71173;DHT22;58875;51.996;4.504;2023-12-20T01:01:06;8.47;77.78
71173;DHT22;58875;51.996;4.504;2023-12-20T01:03:32;8.50;77.74
71173;DHT22;58875;51.996;4.504;2023-12-20T01:05:57;8.47;77.85
71173;DHT22;58875;51.996;4.504;2023-12-20T01:08:23;8.53;77.98
71173;DHT22;58875;51.996;4.504;2023-12-20T01:10:49;8.54;78.01
71173;DHT22;58875;51.996;4.504;2023-12-20T01:13:14;8.55;78.08
71173;DHT22;58875;51.996;4.504;2023-12-20T01:15:40;8.58;78.28
71173;DHT22;58875;51.996;4.504;2023-12-20T01:18:05;8.60;78.36
71173;DHT22;58875;51.996;4.504;2023-12-20T01:20:31;8.61;78.11
71173;DHT22;58875;51.996;4.504;2023-12-20T01:22:57;8.65;78.11
71173;DHT22;58875;51.996;4.504;2023-12-20T01:25:22;8.68;77.94
71173;DHT22;58875;51.996;4.504;2023-12-20T01:27:48;8.64;78.21
71173;DHT22;58875;51.996;4.504;2023-12-20T01:30:14;8.61;78.11
71173;DHT22;58875;51.996;4.504;2023-12-20T01:32:40;8.61;78.04
71173;DHT22;58875;51.996;4.504;2023-12-20T01:35:06;8.61;77.93
71173;DHT22;58875;51.996;4.504;2023-12-20T01:37:31;8.63;78.03
71173;DHT22;58875;51.996;4.504;2023-12-20T01:39:58;8.69;77.88
71173;DHT22;58875;51.996;4.504;2023-12-20T01:42:26;8.69;77.57
71173;DHT22;58875;51.996;4.504;2023-12-20T01:44:52;8.72;77.82
71173;DHT22;58875;51.996;4.504;2023-12-20T01:47:17;8.75;77.71
71173;DHT22;58875;51.996;4.504;2023-12-20T01:49:43;8.68;77.68
71173;DHT22;58875;51.996;4.504;2023-12-20T01:52:09;8.69;77.53
71173;DHT22;58875;51.996;4.504;2023-12-20T01:54:37;8.68;77.52
71173;DHT22;58875;51.996;4.504;2023-12-20T01:57:04;8.68;77.51
71173;DHT22;58875;51.996;4.504;2023-12-20T01:59:30;8.75;77.72
71173;DHT22;58875;51.996;4.504;2023-12-20T02:01:56;8.78;77.51
71173;DHT22;58875;51.996;4.504;2023-12-20T02:04:22;8.76;77.76
71173;DHT22;58875;51.996;4.504;2023-12-20T02:06:48;8.78;77.76
71173;DHT22;58875;51.996;4.504;2023-12-20T02:09:15;8.79;77.78
71173;DHT22;58875;51.996;4.504;2023-12-20T02:11:41;8.78;77.89
71173;DHT22;58875;51.996;4.504;2023-12-20T02:14:07;8.78;77.70
71173;DHT22;58875;51.996;4.504;2023-12-20T02:16:32;8.82;77.82
71173;DHT22;58875;51.996;4.504;2023-12-20T02:18:58;8.85;77.54
71173;DHT22;58875;51.996;4.504;2023-12-20T02:21:33;8.84;77.66
71173;DHT22;58875;51.996;4.504;2023-12-20T02:24:00;8.79;77.49
71173;DHT22;58875;51.996;4.504;2023-12-20T02:26:26;8.76;77.29
71173;DHT22;58875;51.996;4.504;2023-12-20T02:28:52;8.75;77.71
71173;DHT22;58875;51.996;4.504;2023-12-20T02:31:21;8.68;77.67
71173;DHT22;58875;51.996;4.504;2023-12-20T02:33:47;8.67;77.71
71173;DHT22;58875;51.996;4.504;2023-12-20T02:36:13;8.63;77.64
71173;DHT22;58875;51.996;4.504;2023-12-20T02:38:38;8.64;77.58
71173;DHT22;58875;51.996;4.504;2023-12-20T02:41:04;8.60;77.83
71173;DHT22;58875;51.996;4.504;2023-12-20T02:43:29;8.57;77.71
71173;DHT22;58875;51.996;4.504;2023-12-20T02:45:55;8.61;77.85
71173;DHT22;58875;51.996;4.504;2023-12-20T02:48:20;8.64;77.76
71173;DHT22;58875;51.996;4.504;2023-12-20T02:50:48;8.63;77.94
71173;DHT22;58875;51.996;4.504;2023-12-20T02:53:14;8.68;77.60
71173;DHT22;58875;51.996;4.504;2023-12-20T02:55:40;8.74;77.59
71173;DHT22;58875;51.996;4.504;2023-12-20T02:58:05;8.76;77.66
71173;DHT22;58875;51.996;4.504;2023-12-20T03:00:31;8.74;77.68
71173;DHT22;58875;51.996;4.504;2023-12-20T03:02:56;8.76;77.33
71173;DHT22;58875;51.996;4.504;2023-12-20T03:05:22;8.71;77.42
71173;DHT22;58875;51.996;4.504;2023-12-20T03:07:47;8.72;77.54
71173;DHT22;58875;51.996;4.504;2023-12-20T03:10:13;8.64;77.27
71173;DHT22;58875;51.996;4.504;2023-12-20T03:12:38;8.69;77.33
71173;DHT22;58875;51.996;4.504;2023-12-20T03:15:04;8.72;77.31
71173;DHT22;58875;51.996;4.504;2023-12-20T03:17:30;8.64;77.17
71173;DHT22;58875;51.996;4.504;2023-12-20T03:19:56;8.65;77.25
71173;DHT22;58875;51.996;4.504;2023-12-20T03:22:21;8.65;77.12
71173;DHT22;58875;51.996;4.504;2023-12-20T03:24:47;8.65;77.19
71173;DHT22;58875;51.996;4.504;2023-12-20T03:27:13;8.65;77.38
71173;DHT22;58875;51.996;4.504;2023-12-20T03:29:38;8.68;77.07
71173;DHT22;58875;51.996;4.504;2023-12-20T03:32:04;8.67;76.86
71173;DHT22;58875;51.996;4.504;2023-12-20T03:34:32;8.64;76.91
71173;DHT22;58875;51.996;4.504;2023-12-20T03:36:58;8.64;76.63
71173;DHT22;58875;51.996;4.504;2023-12-20T03:39:23;8.63;76.74
71173;DHT22;58875;51.996;4.504;2023-12-20T03:41:49;8.55;76.80
71173;DHT22;58875;51.996;4.504;2023-12-20T03:44:14;8.53;77.09
71173;DHT22;58875;51.996;4.504;2023-12-20T03:46:40;8.54;77.06
71173;DHT22;58875;51.996;4.504;2023-12-20T03:49:05;8.57;76.84
71173;DHT22;58875;51.996;4.504;2023-12-20T03:51:31;8.47;77.00
71173;DHT22;58875;51.996;4.504;2023-12-20T03:53:56;8.54;76.92
71173;DHT22;58875;51.996;4.504;2023-12-20T03:56:22;8.50;77.29
71173;DHT22;58875;51.996;4.504;2023-12-20T03:58:47;8.44;77.52
71173;DHT22;58875;51.996;4.504;2023-12-20T04:01:13;8.41;77.72
71173;DHT22;58875;51.996;4.504;2023-12-20T04:03:39;8.44;77.52
71173;DHT22;58875;51.996;4.504;2023-12-20T04:06:05;8.47;77.66
71173;DHT22;58875;51.996;4.504;2023-12-20T04:08:31;8.44;77.71
71173;DHT22;58875;51.996;4.504;2023-12-20T04:10:57;8.47;77.67
71173;DHT22;58875;51.996;4.504;2023-12-20T04:13:22;8.44;77.95
71173;DHT22;58875;51.996;4.504;2023-12-20T04:15:48;8.45;78.01
71173;DHT22;58875;51.996;4.504;2023-12-20T04:18:15;8.45;78.22
71173;DHT22;58875;51.996;4.504;2023-12-20T04:20:41;8.44;78.23
71173;DHT22;58875;51.996;4.504;2023-12-20T04:23:06;8.44;78.36
71173;DHT22;58875;51.996;4.504;2023-12-20T04:25:32;8.47;78.13
71173;DHT22;58875;51.996;4.504;2023-12-20T04:27:57;8.45;78.26
71173;DHT22;58875;51.996;4.504;2023-12-20T04:30:23;8.40;78.05
71173;DHT22;58875;51.996;4.504;2023-12-20T04:32:48;8.36;78.03
71173;DHT22;58875;51.996;4.504;2023-12-20T04:35:14;8.36;77.74
71173;DHT22;58875;51.996;4.504;2023-12-20T04:37:39;8.40;77.71
71173;DHT22;58875;51.996;4.504;2023-12-20T04:40:05;8.36;77.50
71173;DHT22;58875;51.996;4.504;2023-12-20T04:42:31;8.26;77.62
71173;DHT22;58875;51.996;4.504;2023-12-20T04:44:56;8.33;77.42
71173;DHT22;58875;51.996;4.504;2023-12-20T04:47:25;8.30;77.32
71173;DHT22;58875;51.996;4.504;2023-12-20T04:49:50;8.30;77.22
71173;DHT22;58875;51.996;4.504;2023-12-20T04:52:16;8.34;77.32
71173;DHT22;58875;51.996;4.504;2023-12-20T04:54:41;8.32;77.43
71173;DHT22;58875;51.996;4.504;2023-12-20T04:57:07;8.32;77.53
71173;DHT22;58875;51.996;4.504;2023-12-20T04:59:32;8.32;77.43
71173;DHT22;58875;51.996;4.504;2023-12-20T05:01:58;8.32;77.27
71173;DHT22;58875;51.996;4.504;2023-12-20T05:04:23;8.43;77.20
71173;DHT22;58875;51.996;4.504;2023-12-20T05:06:49;8.33;77.40
71173;DHT22;58875;51.996;4.504;2023-12-20T05:09:15;8.36;77.38
71173;DHT22;58875;51.996;4.504;2023-12-20T05:11:41;8.33;77.86
71173;DHT22;58875;51.996;4.504;2023-12-20T05:14:06;8.24;78.02
71173;DHT22;58875;51.996;4.504;2023-12-20T05:16:32;8.23;78.23
71173;DHT22;58875;51.996;4.504;2023-12-20T05:18:58;8.23;78.57
71173;DHT22;58875;51.996;4.504;2023-12-20T05:21:26;8.27;78.64
71173;DHT22;58875;51.996;4.504;2023-12-20T05:23:51;8.22;78.81
71173;DHT22;58875;51.996;4.504;2023-12-20T05:26:17;8.19;79.06
71173;DHT22;58875;51.996;4.504;2023-12-20T05:28:42;8.20;79.11
71173;DHT22;58875;51.996;4.504;2023-12-20T05:31:08;8.23;79.13
71173;DHT22;58875;51.996;4.504;2023-12-20T05:33:34;8.24;79.04
71173;DHT22;58875;51.996;4.504;2023-12-20T05:36:00;8.24;79.04
71173;DHT22;58875;51.996;4.504;2023-12-20T05:38:25;8.23;79.13
71173;DHT22;58875;51.996;4.504;2023-12-20T05:40:51;8.32;78.82
71173;DHT22;58875;51.996;4.504;2023-12-20T05:43:16;8.37;78.70
71173;DHT22;58875;51.996;4.504;2023-12-20T05:45:42;8.38;78.44
71173;DHT22;58875;51.996;4.504;2023-12-20T05:48:07;8.38;78.38
71173;DHT22;58875;51.996;4.504;2023-12-20T05:50:33;8.41;78.52
71173;DHT22;58875;51.996;4.504;2023-12-20T05:53:00;8.44;78.23
71173;DHT22;58875;51.996;4.504;2023-12-20T05:55:25;8.45;78.08
71173;DHT22;58875;51.996;4.504;2023-12-20T05:57:51;8.43;78.14
71173;DHT22;58875;51.996;4.504;2023-12-20T06:00:17;8.48;78.25
71173;DHT22;58875;51.996;4.504;2023-12-20T06:02:43;8.55;77.99
71173;DHT22;58875;51.996;4.504;2023-12-20T06:05:08;8.61;77.80
71173;DHT22;58875;51.996;4.504;2023-12-20T06:07:34;8.54;77.74
71173;DHT22;58875;51.996;4.504;2023-12-20T06:09:59;8.57;77.88
71173;DHT22;58875;51.996;4.504;2023-12-20T06:12:25;8.63;77.77
71173;DHT22;58875;51.996;4.504;2023-12-20T06:14:52;8.68;77.77
71173;DHT22;58875;51.996;4.504;2023-12-20T06:17:17;8.65;77.86
71173;DHT22;58875;51.996;4.504;2023-12-20T06:19:43;8.63;78.10
71173;DHT22;58875;51.996;4.504;2023-12-20T06:22:10;8.64;77.93
71173;DHT22;58875;51.996;4.504;2023-12-20T06:24:36;8.64;78.07
71173;DHT22;58875;51.996;4.504;2023-12-20T06:27:01;8.68;77.93
71173;DHT22;58875;51.996;4.504;2023-12-20T06:29:28;8.72;77.88
71173;DHT22;58875;51.996;4.504;2023-12-20T06:31:53;8.71;77.80
71173;DHT22;58875;51.996;4.504;2023-12-20T06:34:19;8.69;77.90
71173;DHT22;58875;51.996;4.504;2023-12-20T06:36:44;8.81;77.73
71173;DHT22;58875;51.996;4.504;2023-12-20T06:39:10;8.79;77.51
71173;DHT22;58875;51.996;4.504;2023-12-20T06:41:38;8.74;77.47
71173;DHT22;58875;51.996;4.504;2023-12-20T06:44:04;8.75;77.75
71173;DHT22;58875;51.996;4.504;2023-12-20T06:46:29;8.74;77.76
71173;DHT22;58875;51.996;4.504;2023-12-20T06:48:55;8.75;77.74
71173;DHT22;58875;51.996;4.504;2023-12-20T06:51:20;8.68;78.02
71173;DHT22;58875;51.996;4.504;2023-12-20T06:53:46;8.72;77.77
71173;DHT22;58875;51.996;4.504;2023-12-20T06:56:11;8.68;77.92
71173;DHT22;58875;51.996;4.504;2023-12-20T06:58:38;8.65;77.96
71173;DHT22;58875;51.996;4.504;2023-12-20T07:01:03;8.64;78.03
71173;DHT22;58875;51.996;4.504;2023-12-20T07:03:31;8.65;78.06
71173;DHT22;58875;51.996;4.504;2023-12-20T07:05:56;8.65;78.24
71173;DHT22;58875;51.996;4.504;2023-12-20T07:08:25;8.57;78.52
71173;DHT22;58875;51.996;4.504;2023-12-20T07:10:50;8.61;78.60
71173;DHT22;58875;51.996;4.504;2023-12-20T07:13:16;8.58;78.59
71173;DHT22;58875;51.996;4.504;2023-12-20T07:15:41;8.47;78.97
71173;DHT22;58875;51.996;4.504;2023-12-20T07:18:09;8.43;79.02
71173;DHT22;58875;51.996;4.504;2023-12-20T07:20:35;8.44;78.96
71173;DHT22;58875;51.996;4.504;2023-12-20T07:23:00;8.44;79.01
71173;DHT22;58875;51.996;4.504;2023-12-20T07:25:26;8.38;79.05
71173;DHT22;58875;51.996;4.504;2023-12-20T07:27:51;8.47;78.82
71173;DHT22;58875;51.996;4.504;2023-12-20T07:30:20;8.41;78.90
71173;DHT22;58875;51.996;4.504;2023-12-20T07:32:46;8.43;78.86
71173;DHT22;58875;51.996;4.504;2023-12-20T07:35:12;8.41;79.00
71173;DHT22;58875;51.996;4.504;2023-12-20T07:37:38;8.37;79.03
71173;DHT22;58875;51.996;4.504;2023-12-20T07:40:04;8.38;79.09
71173;DHT22;58875;51.996;4.504;2023-12-20T07:42:29;8.45;78.79
71173;DHT22;58875;51.996;4.504;2023-12-20T07:44:55;8.44;78.67
71173;DHT22;58875;51.996;4.504;2023-12-20T07:47:20;8.47;78.65
71173;DHT22;58875;51.996;4.504;2023-12-20T07:49:50;8.48;78.83
71173;DHT22;58875;51.996;4.504;2023-12-20T07:52:17;8.55;78.73
71173;DHT22;58875;51.996;4.504;2023-12-20T07:54:44;8.58;78.59
71173;DHT22;58875;51.996;4.504;2023-12-20T07:57:10;8.67;78.68
71173;DHT22;58875;51.996;4.504;2023-12-20T07:59:38;8.65;78.75
71173;DHT22;58875;51.996;4.504;2023-12-20T08:02:04;8.63;78.68
71173;DHT22;58875;51.996;4.504;2023-12-20T08:04:29;8.71;78.81
71173;DHT22;58875;51.996;4.504;2023-12-20T08:06:55;8.79;78.65
71173;DHT22;58875;51.996;4.504;2023-12-20T08:09:20;8.84;78.60
71173;DHT22;58875;51.996;4.504;2023-12-20T08:11:47;8.79;78.52
71173;DHT22;58875;51.996;4.504;2023-12-20T08:14:12;8.86;78.59
71173;DHT22;58875;51.996;4.504;2023-12-20T08:16:38;8.88;78.55
71173;DHT22;58875;51.996;4.504;2023-12-20T08:19:03;8.85;78.52
71173;DHT22;58875;51.996;4.504;2023-12-20T08:21:29;8.89;78.48
71173;DHT22;58875;51.996;4.504;2023-12-20T08:23:55;8.89;78.53
71173;DHT22;58875;51.996;4.504;2023-12-20T08:26:20;8.92;78.52
71173;DHT22;58875;51.996;4.504;2023-12-20T08:28:47;8.99;78.43
71173;DHT22;58875;51.996;4.504;2023-12-20T08:31:14;9.08;78.25
71173;DHT22;58875;51.996;4.504;2023-12-20T08:33:41;9.09;78.01
71173;DHT22;58875;51.996;4.504;2023-12-20T08:36:07;9.06;78.26
71173;DHT22;58875;51.996;4.504;2023-12-20T08:38:32;9.09;78.26
71173;DHT22;58875;51.996;4.504;2023-12-20T08:40:58;9.15;77.92
71173;DHT22;58875;51.996;4.504;2023-12-20T08:43:23;9.19;77.86
71173;DHT22;58875;51.996;4.504;2023-12-20T08:45:49;9.22;77.73
71173;DHT22;58875;51.996;4.504;2023-12-20T08:48:14;9.22;77.90
71173;DHT22;58875;51.996;4.504;2023-12-20T08:50:40;9.29;77.76
71173;DHT22;58875;51.996;4.504;2023-12-20T08:53:05;9.36;77.68
71173;DHT22;58875;51.996;4.504;2023-12-20T08:55:31;9.30;77.44
71173;DHT22;58875;51.996;4.504;2023-12-20T08:57:56;9.42;77.48
71173;DHT22;58875;51.996;4.504;2023-12-20T09:00:22;9.43;77.44
71173;DHT22;58875;51.996;4.504;2023-12-20T09:02:49;9.42;77.34
71173;DHT22;58875;51.996;4.504;2023-12-20T09:05:15;9.54;77.10
71173;DHT22;58875;51.996;4.504;2023-12-20T09:07:40;9.60;77.08
71173;DHT22;58875;51.996;4.504;2023-12-20T09:10:06;9.54;76.95
71173;DHT22;58875;51.996;4.504;2023-12-20T09:12:38;9.56;77.10
71173;DHT22;58875;51.996;4.504;2023-12-20T09:15:06;9.60;77.21
71173;DHT22;58875;51.996;4.504;2023-12-20T09:17:31;9.57;77.29
71173;DHT22;58875;51.996;4.504;2023-12-20T09:19:57;9.61;77.20
71173;DHT22;58875;51.996;4.504;2023-12-20T09:22:24;9.61;77.22
71173;DHT22;58875;51.996;4.504;2023-12-20T09:24:50;9.64;76.95
71173;DHT22;58875;51.996;4.504;2023-12-20T09:27:15;9.67;77.09
71173;DHT22;58875;51.996;4.504;2023-12-20T09:29:41;9.69;76.89
71173;DHT22;58875;51.996;4.504;2023-12-20T09:32:06;9.74;77.10
71173;DHT22;58875;51.996;4.504;2023-12-20T09:34:32;9.74;76.79
71173;DHT22;58875;51.996;4.504;2023-12-20T09:36:57;9.77;76.86
71173;DHT22;58875;51.996;4.504;2023-12-20T09:39:23;9.71;77.14
71173;DHT22;58875;51.996;4.504;2023-12-20T09:42:03;9.77;77.30
71173;DHT22;58875;51.996;4.504;2023-12-20T09:44:31;9.77;76.99
71173;DHT22;58875;51.996;4.504;2023-12-20T09:46:57;9.78;77.29
71173;DHT22;58875;51.996;4.504;2023-12-20T09:49:23;9.81;77.05
71173;DHT22;58875;51.996;4.504;2023-12-20T09:51:51;9.71;77.11
71173;DHT22;58875;51.996;4.504;2023-12-20T09:54:18;9.78;77.24
71173;DHT22;58875;51.996;4.504;2023-12-20T09:56:44;9.73;77.38
71173;DHT22;58875;51.996;4.504;2023-12-20T09:59:10;9.87;77.13
71173;DHT22;58875;51.996;4.504;2023-12-20T10:01:38;9.87;76.81
71173;DHT22;58875;51.996;4.504;2023-12-20T10:04:06;9.88;76.98
71173;DHT22;58875;51.996;4.504;2023-12-20T10:06:42;9.91;76.91
71173;DHT22;58875;51.996;4.504;2023-12-20T10:09:11;9.98;76.41
71173;DHT22;58875;51.996;4.504;2023-12-20T10:11:40;10.09;76.13
71173;DHT22;58875;51.996;4.504;2023-12-20T10:14:07;10.04;75.90
71173;DHT22;58875;51.996;4.504;2023-12-20T10:16:33;10.09;75.92
71173;DHT22;58875;51.996;4.504;2023-12-20T10:19:00;10.05;75.73
71173;DHT22;58875;51.996;4.504;2023-12-20T10:21:26;10.14;76.01
71173;DHT22;58875;51.996;4.504;2023-12-20T10:23:54;10.08;76.20
71173;DHT22;58875;51.996;4.504;2023-12-20T10:26:20;10.18;76.06
71173;DHT22;58875;51.996;4.504;2023-12-20T10:28:50;10.17;75.97
71173;DHT22;58875;51.996;4.504;2023-12-20T10:31:30;10.25;76.10
71173;DHT22;58875;51.996;4.504;2023-12-20T10:33:57;10.14;75.87
71173;DHT22;58875;51.996;4.504;2023-12-20T10:36:25;10.19;76.10
71173;DHT22;58875;51.996;4.504;2023-12-20T10:38:53;10.09;76.32
71173;DHT22;58875;51.996;4.504;2023-12-20T10:41:31;10.18;76.43
71173;DHT22;58875;51.996;4.504;2023-12-20T10:44:03;10.14;76.23
71173;DHT22;58875;51.996;4.504;2023-12-20T10:46:34;10.18;76.47
71173;DHT22;58875;51.996;4.504;2023-12-20T10:49:03;10.15;76.12
71173;DHT22;58875;51.996;4.504;2023-12-20T10:51:34;10.19;76.46
71173;DHT22;58875;51.996;4.504;2023-12-20T10:54:00;10.32;76.55
71173;DHT22;58875;51.996;4.504;2023-12-20T10:56:32;10.25;76.56
71173;DHT22;58875;51.996;4.504;2023-12-20T10:59:02;10.34;76.31
71173;DHT22;58875;51.996;4.504;2023-12-20T11:01:31;10.39;76.20
71173;DHT22;58875;51.996;4.504;2023-12-20T11:03:58;10.53;75.84
71173;DHT22;58875;51.996;4.504;2023-12-20T11:06:43;10.50;75.63
71173;DHT22;58875;51.996;4.504;2023-12-20T11:09:35;10.59;75.86
71173;DHT22;58875;51.996;4.504;2023-12-20T11:12:41;10.57;75.71
71173;DHT22;58875;51.996;4.504;2023-12-20T11:15:04;10.50;75.71
71173;DHT22;58875;51.996;4.504;2023-12-20T11:17:31;10.49;75.90
71173;DHT22;58875;51.996;4.504;2023-12-20T11:22:28;10.39;75.89
71173;DHT22;58875;51.996;4.504;2023-12-20T11:25:02;10.44;75.57
71173;DHT22;58875;51.996;4.504;2023-12-20T11:27:28;10.44;75.60
71173;DHT22;58875;51.996;4.504;2023-12-20T11:29:57;10.36;75.33
71173;DHT22;58875;51.996;4.504;2023-12-20T11:34:59;10.60;75.46
71173;DHT22;58875;51.996;4.504;2023-12-20T11:37:35;10.53;75.34
71173;DHT22;58875;51.996;4.504;2023-12-20T11:40:03;10.46;75.30
71173;DHT22;58875;51.996;4.504;2023-12-20T11:42:38;10.44;75.49
71173;DHT22;58875;51.996;4.504;2023-12-20T11:45:04;10.50;75.42
71173;DHT22;58875;51.996;4.504;2023-12-20T11:47:31;10.49;75.18
71173;DHT22;58875;51.996;4.504;2023-12-20T11:49:57;10.45;75.30
71173;DHT22;58875;51.996;4.504;2023-12-20T11:52:22;10.46;75.62
71173;DHT22;58875;51.996;4.504;2023-12-20T11:54:48;10.48;75.77
71173;DHT22;58875;51.996;4.504;2023-12-20T11:57:14;10.45;75.89
71173;DHT22;58875;51.996;4.504;2023-12-20T11:59:42;10.42;75.92
71173;DHT22;58875;51.996;4.504;2023-12-20T12:02:08;10.46;75.96
71173;DHT22;58875;51.996;4.504;2023-12-20T12:04:34;10.46;76.00
71173;DHT22;58875;51.996;4.504;2023-12-20T12:07:00;10.52;75.93
71173;DHT22;58875;51.996;4.504;2023-12-20T12:09:29;10.39;75.97
71173;DHT22;58875;51.996;4.504;2023-12-20T12:11:54;10.53;76.18
71173;DHT22;58875;51.996;4.504;2023-12-20T12:14:23;10.48;75.86
71173;DHT22;58875;51.996;4.504;2023-12-20T12:16:49;10.49;76.07
71173;DHT22;58875;51.996;4.504;2023-12-20T12:19:23;10.44;75.35
71173;DHT22;58875;51.996;4.504;2023-12-20T12:24:32;10.55;75.32
71173;DHT22;58875;51.996;4.504;2023-12-20T12:26:58;10.53;74.66
71173;DHT22;58875;51.996;4.504;2023-12-20T12:29:24;10.48;74.90
71173;DHT22;58875;51.996;4.504;2023-12-20T12:31:53;10.52;74.97
71173;DHT22;58875;51.996;4.504;2023-12-20T12:34:19;10.46;75.14
71173;DHT22;58875;51.996;4.504;2023-12-20T12:36:44;10.56;75.00
71173;DHT22;58875;51.996;4.504;2023-12-20T12:39:15;10.59;75.15
71173;DHT22;58875;51.996;4.504;2023-12-20T12:41:43;10.65;74.97
71173;DHT22;58875;51.996;4.504;2023-12-20T12:44:09;10.65;74.85
71173;DHT22;58875;51.996;4.504;2023-12-20T12:46:35;10.57;74.93
71173;DHT22;58875;51.996;4.504;2023-12-20T12:49:00;10.56;74.80
71173;DHT22;58875;51.996;4.504;2023-12-20T12:51:26;10.52;74.94
71173;DHT22;58875;51.996;4.504;2023-12-20T12:53:52;10.38;75.33
71173;DHT22;58875;51.996;4.504;2023-12-20T12:56:21;10.41;75.70
71173;DHT22;58875;51.996;4.504;2023-12-20T12:58:47;10.45;75.89
71173;DHT22;58875;51.996;4.504;2023-12-20T13:01:13;10.24;76.44
71173;DHT22;58875;51.996;4.504;2023-12-20T13:03:44;10.25;76.32
71173;DHT22;58875;51.996;4.504;2023-12-20T13:06:13;10.21;76.93
71173;DHT22;58875;51.996;4.504;2023-12-20T13:08:38;10.17;76.92
71173;DHT22;58875;51.996;4.504;2023-12-20T13:11:04;10.24;77.00
71173;DHT22;58875;51.996;4.504;2023-12-20T13:13:33;10.26;77.22
71173;DHT22;58875;51.996;4.504;2023-12-20T13:16:04;10.34;76.79
71173;DHT22;58875;51.996;4.504;2023-12-20T13:18:30;10.11;77.45
71173;DHT22;58875;51.996;4.504;2023-12-20T13:20:56;10.14;77.21
71173;DHT22;58875;51.996;4.504;2023-12-20T13:23:21;10.15;77.61
71173;DHT22;58875;51.996;4.504;2023-12-20T13:29:07;10.15;77.66
71173;DHT22;58875;51.996;4.504;2023-12-20T13:31:39;10.09;77.94
71173;DHT22;58875;51.996;4.504;2023-12-20T13:34:06;10.07;77.92
71173;DHT22;58875;51.996;4.504;2023-12-20T13:36:32;10.08;78.02
71173;DHT22;58875;51.996;4.504;2023-12-20T13:39:02;10.08;78.07
71173;DHT22;58875;51.996;4.504;2023-12-20T13:41:32;9.99;77.99
71173;DHT22;58875;51.996;4.504;2023-12-20T13:43:57;9.99;78.16
71173;DHT22;58875;51.996;4.504;2023-12-20T13:46:23;10.04;78.10
71173;DHT22;58875;51.996;4.504;2023-12-20T13:48:51;9.94;78.31
71173;DHT22;58875;51.996;4.504;2023-12-20T13:51:17;9.94;78.44
71173;DHT22;58875;51.996;4.504;2023-12-20T13:53:54;9.88;78.53
71173;DHT22;58875;51.996;4.504;2023-12-20T13:56:26;9.94;78.63
71173;DHT22;58875;51.996;4.504;2023-12-20T13:58:51;9.95;78.46
71173;DHT22;58875;51.996;4.504;2023-12-20T14:01:20;9.99;78.28
71173;DHT22;58875;51.996;4.504;2023-12-20T14:03:45;10.01;78.25
71173;DHT22;58875;51.996;4.504;2023-12-20T14:06:14;9.98;78.41
71173;DHT22;58875;51.996;4.504;2023-12-20T14:08:48;9.94;78.50
71173;DHT22;58875;51.996;4.504;2023-12-20T14:11:14;9.93;78.60
71173;DHT22;58875;51.996;4.504;2023-12-20T14:13:43;9.91;78.84
71173;DHT22;58875;51.996;4.504;2023-12-20T14:16:09;9.98;78.81
71173;DHT22;58875;51.996;4.504;2023-12-20T14:18:47;10.01;78.83
71173;DHT22;58875;51.996;4.504;2023-12-20T14:21:22;9.98;79.04
71173;DHT22;58875;51.996;4.504;2023-12-20T14:23:49;9.90;79.42
71173;DHT22;58875;51.996;4.504;2023-12-20T14:26:14;9.97;79.48
71173;DHT22;58875;51.996;4.504;2023-12-20T14:28:41;9.95;79.50
71173;DHT22;58875;51.996;4.504;2023-12-20T14:31:07;10.04;79.52
71173;DHT22;58875;51.996;4.504;2023-12-20T14:33:34;9.98;79.51
71173;DHT22;58875;51.996;4.504;2023-12-20T14:36:00;9.90;79.59
71173;DHT22;58875;51.996;4.504;2023-12-20T14:38:25;9.97;79.55
71173;DHT22;58875;51.996;4.504;2023-12-20T14:40:53;10.01;79.24
71173;DHT22;58875;51.996;4.504;2023-12-20T14:43:19;9.91;79.37
71173;DHT22;58875;51.996;4.504;2023-12-20T14:45:47;9.94;79.54
71173;DHT22;58875;51.996;4.504;2023-12-20T14:48:13;9.94;79.18
71173;DHT22;58875;51.996;4.504;2023-12-20T14:50:38;9.93;79.08
71173;DHT22;58875;51.996;4.504;2023-12-20T14:53:06;9.95;78.98
71173;DHT22;58875;51.996;4.504;2023-12-20T14:55:32;9.94;79.11
71173;DHT22;58875;51.996;4.504;2023-12-20T14:57:59;9.87;79.17
71173;DHT22;58875;51.996;4.504;2023-12-20T15:00:26;9.83;79.55
71173;DHT22;58875;51.996;4.504;2023-12-20T15:02:51;9.77;79.99
71173;DHT22;58875;51.996;4.504;2023-12-20T15:05:19;9.83;80.22
71173;DHT22;58875;51.996;4.504;2023-12-20T15:07:45;9.71;80.49
71173;DHT22;58875;51.996;4.504;2023-12-20T15:10:14;9.76;80.50
71173;DHT22;58875;51.996;4.504;2023-12-20T15:12:40;9.74;80.56
71173;DHT22;58875;51.996;4.504;2023-12-20T15:15:06;9.70;81.05
71173;DHT22;58875;51.996;4.504;2023-12-20T15:17:32;9.74;81.09
71173;DHT22;58875;51.996;4.504;2023-12-20T15:19:58;9.71;81.05
71173;DHT22;58875;51.996;4.504;2023-12-20T15:22:23;9.70;81.44
71173;DHT22;58875;51.996;4.504;2023-12-20T15:24:51;9.70;81.56
71173;DHT22;58875;51.996;4.504;2023-12-20T15:27:19;9.69;81.53
71173;DHT22;58875;51.996;4.504;2023-12-20T15:29:44;9.73;81.54
71173;DHT22;58875;51.996;4.504;2023-12-20T15:32:10;9.66;81.74
71173;DHT22;58875;51.996;4.504;2023-12-20T15:34:37;9.76;81.70
71173;DHT22;58875;51.996;4.504;2023-12-20T15:37:02;9.74;81.76
71173;DHT22;58875;51.996;4.504;2023-12-20T15:39:29;9.73;81.85
71173;DHT22;58875;51.996;4.504;2023-12-20T15:41:55;9.71;82.09
71173;DHT22;58875;51.996;4.504;2023-12-20T15:44:20;9.69;82.04
71173;DHT22;58875;51.996;4.504;2023-12-20T15:46:46;9.71;82.32
71173;DHT22;58875;51.996;4.504;2023-12-20T15:49:11;9.70;82.40